THY9926 LTCG-LTAC
Flight info
| Callsign | THY9926 |
|---|---|
| Flight time | 1h 17m |
| Altitude | 34000 |
| Route | TEMEL UW71 ILHAN |
| Aircraft | A320/M-SDE3FGHIRWY/LB1 |
Departure
| Time | 2026-05-04 20:17 |
|---|---|
| Airport | Trabzon International Airport (LTCG) |
Arrival
| Time | 2026-05-04 21:34 |
|---|---|
| Airport | Esenboğa International Airport (LTAC) |
| Time | Latitude | Longitude | Altitude | Speed | Heading |
|---|---|---|---|---|---|
| 2026-05-04 19:53 | 40.99576 | 39.78057 | 90 ft | 0 kts | 319° |
| 2026-05-04 20:13 | 40.99577 | 39.78056 | 90 ft | 1 kts | 319° |
| 2026-05-04 20:13 | 40.99586 | 39.78051 | 92 ft | 3 kts | 345° |
| 2026-05-04 20:13 | 40.99633 | 39.78053 | 90 ft | 7 kts | 348° |
| 2026-05-04 20:14 | 40.99665 | 39.77990 | 90 ft | 9 kts | 290° |
| 2026-05-04 20:14 | 40.99692 | 39.77899 | 91 ft | 12 kts | 292° |
| 2026-05-04 20:14 | 40.99727 | 39.77791 | 91 ft | 14 kts | 293° |
| 2026-05-04 20:14 | 40.99765 | 39.77667 | 92 ft | 16 kts | 291° |
| 2026-05-04 20:15 | 40.99802 | 39.77543 | 90 ft | 14 kts | 297° |
| 2026-05-04 20:15 | 40.99878 | 39.77490 | 91 ft | 14 kts | 7° |
| 2026-05-04 20:15 | 40.99939 | 39.77559 | 91 ft | 10 kts | 78° |
| 2026-05-04 20:15 | 40.99932 | 39.77597 | 90 ft | 0 kts | 110° |
| 2026-05-04 20:16 | 40.99927 | 39.77617 | 89 ft | 11 kts | 109° |
| 2026-05-04 20:16 | 40.99802 | 39.78033 | 91 ft | 83 kts | 112° |
| 2026-05-04 20:16 | 40.99508 | 39.78978 | 88 ft | 137 kts | 112° |
| 2026-05-04 20:17 | 40.99109 | 39.80254 | 423 ft | 142 kts | 112° |
| 2026-05-04 20:17 | 40.98852 | 39.81520 | 888 ft | 146 kts | 94° |
| 2026-05-04 20:17 | 40.98739 | 39.82849 | 1351 ft | 146 kts | 94° |
| 2026-05-04 20:17 | 40.98651 | 39.84189 | 1787 ft | 146 kts | 96° |
| 2026-05-04 20:18 | 40.98538 | 39.85535 | 2138 ft | 152 kts | 97° |
| 2026-05-04 20:18 | 40.98400 | 39.87024 | 2282 ft | 174 kts | 97° |
| 2026-05-04 20:18 | 40.98238 | 39.88763 | 2369 ft | 205 kts | 97° |
| 2026-05-04 20:18 | 40.98393 | 39.90691 | 2716 ft | 220 kts | 61° |
| 2026-05-04 20:19 | 40.99503 | 39.92089 | 3197 ft | 233 kts | 22° |
| 2026-05-04 20:19 | 41.01095 | 39.92675 | 3811 ft | 242 kts | 8° |
| 2026-05-04 20:19 | 41.02777 | 39.92942 | 4612 ft | 245 kts | 4° |
| 2026-05-04 20:19 | 41.04487 | 39.93115 | 5414 ft | 248 kts | 1° |
| 2026-05-04 20:20 | 41.05625 | 39.92975 | 5938 ft | 250 kts | 345° |
| 2026-05-04 20:20 | 41.07214 | 39.92041 | 6724 ft | 252 kts | 324° |
| 2026-05-04 20:20 | 41.08504 | 39.90369 | 7209 ft | 270 kts | 302° |
| 2026-05-04 20:20 | 41.09306 | 39.88087 | 7876 ft | 277 kts | 291° |
| 2026-05-04 20:21 | 41.10035 | 39.85706 | 8648 ft | 280 kts | 292° |
| 2026-05-04 20:21 | 41.10776 | 39.83299 | 9409 ft | 284 kts | 292° |
| 2026-05-04 20:21 | 41.12297 | 39.78365 | 10602 ft | 303 kts | 292° |
| 2026-05-04 20:22 | 41.13127 | 39.75688 | 10781 ft | 325 kts | 292° |
| 2026-05-04 20:22 | 41.13764 | 39.72715 | 10954 ft | 345 kts | 277° |
| 2026-05-04 20:22 | 41.13736 | 39.69506 | 11458 ft | 353 kts | 261° |
| 2026-05-04 20:22 | 41.13009 | 39.66389 | 12061 ft | 357 kts | 244° |
| 2026-05-04 20:23 | 41.11607 | 39.63667 | 12672 ft | 361 kts | 226° |
| 2026-05-04 20:23 | 41.09761 | 39.61388 | 13292 ft | 364 kts | 222° |
| 2026-05-04 20:23 | 41.07871 | 39.59136 | 13916 ft | 367 kts | 222° |
| 2026-05-04 20:23 | 41.06088 | 39.56697 | 14504 ft | 371 kts | 232° |
| 2026-05-04 20:24 | 41.04737 | 39.53782 | 15081 ft | 373 kts | 245° |
| 2026-05-04 20:24 | 41.03914 | 39.50511 | 15608 ft | 377 kts | 258° |
| 2026-05-04 20:24 | 41.03675 | 39.47036 | 16125 ft | 381 kts | 272° |
| 2026-05-04 20:24 | 41.03884 | 39.43526 | 16677 ft | 384 kts | 275° |
| 2026-05-04 20:25 | 41.04112 | 39.40033 | 17233 ft | 387 kts | 275° |
| 2026-05-04 20:25 | 41.04335 | 39.36468 | 17792 ft | 390 kts | 275° |
| 2026-05-04 20:25 | 41.04555 | 39.32872 | 18364 ft | 393 kts | 275° |
| 2026-05-04 20:25 | 41.04776 | 39.29250 | 18930 ft | 396 kts | 275° |
| 2026-05-04 20:26 | 41.05001 | 39.25603 | 19500 ft | 399 kts | 275° |
| 2026-05-04 20:26 | 41.05230 | 39.21878 | 20057 ft | 402 kts | 275° |
| 2026-05-04 20:26 | 41.05452 | 39.18223 | 20565 ft | 405 kts | 274° |
| 2026-05-04 20:26 | 41.05678 | 39.14482 | 21028 ft | 409 kts | 274° |
| 2026-05-04 20:27 | 41.05934 | 39.10724 | 21501 ft | 411 kts | 276° |
| 2026-05-04 20:27 | 41.06258 | 39.06950 | 21945 ft | 414 kts | 277° |
| 2026-05-04 20:27 | 41.06624 | 39.03157 | 22371 ft | 416 kts | 277° |
| 2026-05-04 20:27 | 41.07010 | 38.99342 | 22785 ft | 419 kts | 277° |
| 2026-05-04 20:28 | 41.07393 | 38.95504 | 23192 ft | 421 kts | 277° |
| 2026-05-04 20:28 | 41.07768 | 38.91641 | 23576 ft | 424 kts | 277° |
| 2026-05-04 20:28 | 41.08133 | 38.87753 | 23954 ft | 426 kts | 277° |
| 2026-05-04 20:28 | 41.08490 | 38.83842 | 24312 ft | 429 kts | 277° |
| 2026-05-04 20:29 | 41.08840 | 38.79904 | 24676 ft | 431 kts | 276° |
| 2026-05-04 20:29 | 41.09187 | 38.75946 | 25020 ft | 433 kts | 276° |
| 2026-05-04 20:29 | 41.09535 | 38.71968 | 25355 ft | 436 kts | 276° |
| 2026-05-04 20:29 | 41.09887 | 38.67967 | 25686 ft | 438 kts | 276° |
| 2026-05-04 20:30 | 41.10237 | 38.63948 | 26019 ft | 440 kts | 276° |
| 2026-05-04 20:30 | 41.10584 | 38.59906 | 26346 ft | 442 kts | 276° |
| 2026-05-04 20:30 | 41.10929 | 38.55845 | 26666 ft | 444 kts | 276° |
| 2026-05-04 20:30 | 41.11273 | 38.51765 | 26984 ft | 447 kts | 276° |
| 2026-05-04 20:31 | 41.11617 | 38.47662 | 27294 ft | 449 kts | 276° |
| 2026-05-04 20:31 | 41.11961 | 38.43554 | 27711 ft | 448 kts | 276° |
| 2026-05-04 20:31 | 41.12306 | 38.39460 | 28145 ft | 447 kts | 276° |
| 2026-05-04 20:31 | 41.12646 | 38.35368 | 28574 ft | 446 kts | 276° |
| 2026-05-04 20:32 | 41.12980 | 38.31288 | 28997 ft | 445 kts | 276° |
| 2026-05-04 20:32 | 41.13311 | 38.27211 | 29413 ft | 444 kts | 276° |
| 2026-05-04 20:32 | 41.13647 | 38.23143 | 29824 ft | 443 kts | 276° |
| 2026-05-04 20:32 | 41.13982 | 38.19085 | 30235 ft | 442 kts | 276° |
| 2026-05-04 20:33 | 41.14313 | 38.15028 | 30647 ft | 442 kts | 276° |
| 2026-05-04 20:33 | 41.14642 | 38.10984 | 31066 ft | 441 kts | 276° |
| 2026-05-04 20:33 | 41.14967 | 38.06942 | 31454 ft | 440 kts | 276° |
| 2026-05-04 20:33 | 41.15290 | 38.02908 | 31849 ft | 439 kts | 276° |
| 2026-05-04 20:34 | 41.15613 | 37.98882 | 32243 ft | 439 kts | 276° |
| 2026-05-04 20:34 | 41.15936 | 37.94863 | 32633 ft | 438 kts | 276° |
| 2026-05-04 20:34 | 41.16253 | 37.90901 | 33014 ft | 437 kts | 276° |
| 2026-05-04 20:34 | 41.16574 | 37.86894 | 33395 ft | 436 kts | 276° |
| 2026-05-04 20:35 | 41.16906 | 37.82898 | 33760 ft | 436 kts | 276° |
| 2026-05-04 20:35 | 41.17248 | 37.78898 | 33971 ft | 436 kts | 276° |
| 2026-05-04 20:35 | 41.17947 | 37.70780 | 34008 ft | 448 kts | 276° |
| 2026-05-04 20:36 | 41.18637 | 37.62523 | 34005 ft | 451 kts | 276° |
| 2026-05-04 20:36 | 41.19174 | 37.54224 | 34009 ft | 451 kts | 274° |
| 2026-05-04 20:37 | 41.19681 | 37.45917 | 34009 ft | 451 kts | 275° |
| 2026-05-04 20:37 | 41.20292 | 37.37625 | 34011 ft | 452 kts | 276° |
| 2026-05-04 20:38 | 41.20940 | 37.29328 | 34014 ft | 452 kts | 276° |
| 2026-05-04 20:38 | 41.21565 | 37.21026 | 34018 ft | 452 kts | 275° |
| 2026-05-04 20:39 | 41.22199 | 37.12718 | 34020 ft | 452 kts | 276° |
| 2026-05-04 20:39 | 41.22850 | 37.04414 | 34022 ft | 452 kts | 276° |
| 2026-05-04 20:40 | 41.23495 | 36.96104 | 34024 ft | 452 kts | 276° |
| 2026-05-04 20:40 | 41.24122 | 36.87795 | 34016 ft | 452 kts | 276° |
| 2026-05-04 20:41 | 41.24739 | 36.79478 | 34025 ft | 452 kts | 275° |
| 2026-05-04 20:41 | 41.25355 | 36.71162 | 34019 ft | 452 kts | 275° |
| 2026-05-04 20:42 | 41.25972 | 36.62846 | 34026 ft | 452 kts | 275° |
| 2026-05-04 20:42 | 41.26007 | 36.54570 | 34018 ft | 452 kts | 261° |
| 2026-05-04 20:43 | 41.24254 | 36.46575 | 34024 ft | 452 kts | 250° |
| 2026-05-04 20:43 | 41.22080 | 36.38746 | 34018 ft | 452 kts | 250° |
| 2026-05-04 20:44 | 41.19905 | 36.30900 | 34010 ft | 453 kts | 250° |
| 2026-05-04 20:44 | 41.17721 | 36.23041 | 34006 ft | 454 kts | 250° |
| 2026-05-04 20:45 | 41.15529 | 36.15172 | 34004 ft | 455 kts | 250° |
| 2026-05-04 20:45 | 41.13323 | 36.07294 | 34009 ft | 456 kts | 250° |
| 2026-05-04 20:46 | 41.11104 | 35.99414 | 34008 ft | 456 kts | 249° |
| 2026-05-04 20:46 | 41.08869 | 35.91531 | 34007 ft | 457 kts | 249° |
| 2026-05-04 20:47 | 41.06589 | 35.83663 | 34007 ft | 458 kts | 249° |
| 2026-05-04 20:47 | 41.04262 | 35.75805 | 34013 ft | 458 kts | 249° |
| 2026-05-04 20:48 | 41.01933 | 35.67957 | 34023 ft | 458 kts | 249° |
| 2026-05-04 20:48 | 40.99659 | 35.60088 | 34021 ft | 458 kts | 249° |
| 2026-05-04 20:49 | 40.97426 | 35.52199 | 34022 ft | 458 kts | 249° |
| 2026-05-04 20:49 | 40.95174 | 35.44310 | 34009 ft | 459 kts | 249° |
| 2026-05-04 20:50 | 40.92895 | 35.36409 | 34003 ft | 460 kts | 249° |
| 2026-05-04 20:50 | 40.90607 | 35.28500 | 34012 ft | 461 kts | 249° |
| 2026-05-04 20:51 | 40.88316 | 35.20591 | 34023 ft | 460 kts | 249° |
| 2026-05-04 20:51 | 40.86020 | 35.12698 | 34025 ft | 460 kts | 249° |
| 2026-05-04 20:52 | 40.83719 | 35.04807 | 34018 ft | 461 kts | 249° |
| 2026-05-04 20:52 | 40.81411 | 34.96920 | 34031 ft | 460 kts | 249° |
| 2026-05-04 20:53 | 40.79121 | 34.89105 | 34035 ft | 459 kts | 249° |
| 2026-05-04 20:53 | 40.76813 | 34.81263 | 34037 ft | 458 kts | 249° |
| 2026-05-04 20:54 | 40.74503 | 34.73435 | 34030 ft | 458 kts | 249° |
| 2026-05-04 20:54 | 40.72171 | 34.65625 | 34019 ft | 458 kts | 248° |
| 2026-05-04 20:55 | 40.69807 | 34.57821 | 34022 ft | 459 kts | 248° |
| 2026-05-04 20:55 | 40.67430 | 34.50027 | 34028 ft | 458 kts | 248° |
| 2026-05-04 20:56 | 40.65059 | 34.42240 | 34026 ft | 458 kts | 248° |
| 2026-05-04 20:56 | 40.62685 | 34.34457 | 34031 ft | 458 kts | 248° |
| 2026-05-04 20:57 | 40.60317 | 34.26679 | 34028 ft | 458 kts | 248° |
| 2026-05-04 20:57 | 40.57942 | 34.18908 | 34027 ft | 458 kts | 248° |
| 2026-05-04 20:58 | 40.55562 | 34.11137 | 34034 ft | 458 kts | 248° |
| 2026-05-04 20:58 | 40.53171 | 34.03386 | 34028 ft | 458 kts | 248° |
| 2026-05-04 20:59 | 40.50777 | 33.95696 | 34029 ft | 458 kts | 248° |
| 2026-05-04 20:59 | 40.48568 | 33.87859 | 34033 ft | 458 kts | 252° |
| 2026-05-04 21:00 | 40.46587 | 33.79921 | 34031 ft | 457 kts | 246° |
| 2026-05-04 21:00 | 40.45074 | 33.76262 | 34030 ft | 457 kts | 234° |
| 2026-05-04 21:00 | 40.42981 | 33.73139 | 34022 ft | 456 kts | 221° |
| 2026-05-04 21:01 | 40.40413 | 33.70700 | 34022 ft | 456 kts | 209° |
| 2026-05-04 21:01 | 40.37523 | 33.68996 | 33965 ft | 458 kts | 198° |
| 2026-05-04 21:01 | 40.34428 | 33.68027 | 33712 ft | 458 kts | 190° |
| 2026-05-04 21:01 | 40.31291 | 33.67298 | 33463 ft | 458 kts | 190° |
| 2026-05-04 21:02 | 40.28155 | 33.66566 | 33139 ft | 458 kts | 190° |
| 2026-05-04 21:02 | 40.24998 | 33.65827 | 32094 ft | 464 kts | 190° |
| 2026-05-04 21:02 | 40.21814 | 33.64989 | 31109 ft | 468 kts | 195° |
| 2026-05-04 21:02 | 40.18737 | 33.63593 | 30156 ft | 470 kts | 204° |
| 2026-05-04 21:03 | 40.15841 | 33.61581 | 29090 ft | 473 kts | 213° |
| 2026-05-04 21:03 | 40.13161 | 33.59070 | 28064 ft | 475 kts | 217° |
| 2026-05-04 21:03 | 40.10533 | 33.56528 | 27514 ft | 466 kts | 217° |
| 2026-05-04 21:03 | 40.07938 | 33.54033 | 26807 ft | 461 kts | 216° |
| 2026-05-04 21:04 | 40.05365 | 33.51567 | 26123 ft | 456 kts | 216° |
| 2026-05-04 21:04 | 40.02818 | 33.49127 | 25442 ft | 452 kts | 216° |
| 2026-05-04 21:04 | 40.00298 | 33.46716 | 24782 ft | 447 kts | 216° |
| 2026-05-04 21:04 | 39.97801 | 33.44332 | 24124 ft | 442 kts | 216° |
| 2026-05-04 21:05 | 39.95334 | 33.41967 | 23394 ft | 439 kts | 218° |
| 2026-05-04 21:05 | 39.93192 | 33.39160 | 22597 ft | 437 kts | 235° |
| 2026-05-04 21:05 | 39.91857 | 33.35640 | 21832 ft | 434 kts | 254° |
| 2026-05-04 21:05 | 39.91468 | 33.31777 | 21100 ft | 430 kts | 272° |
| 2026-05-04 21:06 | 39.92045 | 33.27990 | 20405 ft | 426 kts | 291° |
| 2026-05-04 21:06 | 39.93481 | 33.24650 | 19739 ft | 422 kts | 306° |
| 2026-05-04 21:06 | 39.95209 | 33.21586 | 19310 ft | 414 kts | 306° |
| 2026-05-04 21:06 | 39.96888 | 33.18621 | 19185 ft | 400 kts | 306° |
| 2026-05-04 21:07 | 39.98511 | 33.15752 | 19047 ft | 387 kts | 306° |
| 2026-05-04 21:07 | 40.00078 | 33.12978 | 18926 ft | 373 kts | 306° |
| 2026-05-04 21:07 | 40.01720 | 33.10442 | 18798 ft | 360 kts | 321° |
| 2026-05-04 21:07 | 40.03891 | 33.08987 | 18674 ft | 348 kts | 347° |
| 2026-05-04 21:08 | 40.06216 | 33.08975 | 18549 ft | 336 kts | 15° |
| 2026-05-04 21:08 | 40.08306 | 33.10201 | 18426 ft | 326 kts | 33° |
| 2026-05-04 21:08 | 40.10078 | 33.11970 | 18300 ft | 317 kts | 41° |
| 2026-05-04 21:08 | 40.11684 | 33.13883 | 18171 ft | 308 kts | 43° |
| 2026-05-04 21:09 | 40.13241 | 33.15754 | 17983 ft | 302 kts | 41° |
| 2026-05-04 21:09 | 40.14820 | 33.17541 | 17690 ft | 299 kts | 39° |
| 2026-05-04 21:09 | 40.15908 | 33.18702 | 17478 ft | 298 kts | 38° |
| 2026-05-04 21:09 | 40.17542 | 33.20365 | 17163 ft | 297 kts | 37° |
| 2026-05-04 21:10 | 40.19193 | 33.21981 | 16849 ft | 296 kts | 36° |
| 2026-05-04 21:10 | 40.20846 | 33.23567 | 16548 ft | 294 kts | 36° |
| 2026-05-04 21:10 | 40.22494 | 33.25135 | 16240 ft | 292 kts | 36° |
| 2026-05-04 21:10 | 40.24138 | 33.26696 | 15918 ft | 291 kts | 36° |
| 2026-05-04 21:11 | 40.25771 | 33.28251 | 15624 ft | 290 kts | 36° |
| 2026-05-04 21:11 | 40.27394 | 33.29807 | 15326 ft | 288 kts | 36° |
| 2026-05-04 21:11 | 40.29004 | 33.31356 | 15025 ft | 286 kts | 36° |
| 2026-05-04 21:11 | 40.30618 | 33.32864 | 14732 ft | 284 kts | 29° |
| 2026-05-04 21:12 | 40.32481 | 33.33527 | 14434 ft | 279 kts | 355° |
| 2026-05-04 21:12 | 40.34278 | 33.32742 | 14100 ft | 274 kts | 321° |
| 2026-05-04 21:12 | 40.35415 | 33.30796 | 13742 ft | 272 kts | 288° |
| 2026-05-04 21:12 | 40.35560 | 33.28363 | 13376 ft | 271 kts | 256° |
| 2026-05-04 21:13 | 40.34715 | 33.26236 | 13017 ft | 270 kts | 224° |
| 2026-05-04 21:13 | 40.33143 | 33.24923 | 12655 ft | 270 kts | 205° |
| 2026-05-04 21:13 | 40.31514 | 33.23693 | 12278 ft | 272 kts | 217° |
| 2026-05-04 21:13 | 40.30131 | 33.21926 | 11537 ft | 286 kts | 233° |
| 2026-05-04 21:14 | 40.29089 | 33.19629 | 10757 ft | 301 kts | 242° |
| 2026-05-04 21:14 | 40.28091 | 33.17143 | 9932 ft | 315 kts | 242° |
| 2026-05-04 21:14 | 40.27047 | 33.14552 | 9079 ft | 328 kts | 242° |
| 2026-05-04 21:14 | 40.25757 | 33.12039 | 8186 ft | 339 kts | 226° |
| 2026-05-04 21:15 | 40.23999 | 33.09927 | 7277 ft | 348 kts | 219° |
| 2026-05-04 21:15 | 40.22052 | 33.07991 | 6428 ft | 354 kts | 216° |
| 2026-05-04 21:15 | 40.20052 | 33.06196 | 6127 ft | 342 kts | 214° |
| 2026-05-04 21:15 | 40.18119 | 33.04510 | 5989 ft | 326 kts | 214° |
| 2026-05-04 21:16 | 40.16295 | 33.02890 | 6001 ft | 308 kts | 214° |
| 2026-05-04 21:16 | 40.14582 | 33.01344 | 6006 ft | 291 kts | 216° |
| 2026-05-04 21:16 | 40.12983 | 32.99834 | 6006 ft | 276 kts | 217° |
| 2026-05-04 21:16 | 40.11476 | 32.98389 | 6005 ft | 262 kts | 217° |
| 2026-05-04 21:17 | 40.10046 | 32.97023 | 6007 ft | 248 kts | 216° |
| 2026-05-04 21:17 | 40.08580 | 32.96009 | 6006 ft | 233 kts | 192° |
| 2026-05-04 21:17 | 40.06992 | 32.96111 | 6009 ft | 231 kts | 159° |
| 2026-05-04 21:17 | 40.05684 | 32.97301 | 6012 ft | 232 kts | 132° |
| 2026-05-04 21:18 | 40.04662 | 32.98938 | 6011 ft | 233 kts | 127° |
| 2026-05-04 21:18 | 40.03698 | 33.00644 | 6008 ft | 234 kts | 122° |
| 2026-05-04 21:18 | 40.03188 | 33.02624 | 6009 ft | 233 kts | 90° |
| 2026-05-04 21:18 | 40.03574 | 33.04644 | 6006 ft | 232 kts | 57° |
| 2026-05-04 21:19 | 40.04666 | 33.06182 | 6011 ft | 233 kts | 39° |
| 2026-05-04 21:19 | 40.05934 | 33.07493 | 6010 ft | 229 kts | 37° |
| 2026-05-04 21:19 | 40.07170 | 33.08720 | 6005 ft | 219 kts | 36° |
| 2026-05-04 21:19 | 40.08375 | 33.09910 | 6003 ft | 216 kts | 36° |
| 2026-05-04 21:20 | 40.09570 | 33.11088 | 6009 ft | 215 kts | 36° |
| 2026-05-04 21:20 | 40.10759 | 33.12262 | 6010 ft | 214 kts | 37° |
| 2026-05-04 21:20 | 40.11943 | 33.13449 | 6008 ft | 214 kts | 37° |
| 2026-05-04 21:20 | 40.13119 | 33.14645 | 6008 ft | 214 kts | 37° |
| 2026-05-04 21:21 | 40.14296 | 33.15844 | 6011 ft | 215 kts | 37° |
| 2026-05-04 21:21 | 40.15473 | 33.17044 | 6006 ft | 215 kts | 37° |
| 2026-05-04 21:21 | 40.16650 | 33.18247 | 6011 ft | 215 kts | 37° |
| 2026-05-04 21:21 | 40.17827 | 33.19447 | 6006 ft | 215 kts | 37° |
| 2026-05-04 21:22 | 40.18991 | 33.20634 | 6005 ft | 215 kts | 37° |
| 2026-05-04 21:22 | 40.20167 | 33.21837 | 6011 ft | 215 kts | 37° |
| 2026-05-04 21:22 | 40.21344 | 33.23039 | 6008 ft | 215 kts | 37° |
| 2026-05-04 21:22 | 40.22523 | 33.24242 | 6010 ft | 215 kts | 37° |
| 2026-05-04 21:23 | 40.23702 | 33.25442 | 6014 ft | 214 kts | 37° |
| 2026-05-04 21:23 | 40.24825 | 33.26586 | 6029 ft | 196 kts | 37° |
| 2026-05-04 21:23 | 40.25863 | 33.27645 | 5995 ft | 181 kts | 37° |
| 2026-05-04 21:23 | 40.26816 | 33.28619 | 5985 ft | 168 kts | 37° |
| 2026-05-04 21:24 | 40.27718 | 33.29544 | 5999 ft | 163 kts | 37° |
| 2026-05-04 21:24 | 40.28609 | 33.30454 | 6007 ft | 162 kts | 37° |
| 2026-05-04 21:24 | 40.29492 | 33.31359 | 6013 ft | 161 kts | 37° |
| 2026-05-04 21:24 | 40.30372 | 33.32261 | 6013 ft | 161 kts | 37° |
| 2026-05-04 21:25 | 40.31253 | 33.33164 | 6008 ft | 161 kts | 37° |
| 2026-05-04 21:25 | 40.32235 | 33.33810 | 6007 ft | 159 kts | 6° |
| 2026-05-04 21:25 | 40.33306 | 33.33594 | 6008 ft | 157 kts | 329° |
| 2026-05-04 21:25 | 40.34050 | 33.32584 | 6010 ft | 156 kts | 292° |
| 2026-05-04 21:26 | 40.34184 | 33.31195 | 6008 ft | 156 kts | 256° |
| 2026-05-04 21:26 | 40.33728 | 33.29915 | 6031 ft | 154 kts | 240° |
| 2026-05-04 21:26 | 40.33198 | 33.28697 | 6015 ft | 153 kts | 240° |
| 2026-05-04 21:26 | 40.32675 | 33.27486 | 6004 ft | 153 kts | 240° |
| 2026-05-04 21:27 | 40.32154 | 33.26275 | 6008 ft | 153 kts | 240° |
| 2026-05-04 21:27 | 40.31633 | 33.25064 | 6009 ft | 153 kts | 240° |
| 2026-05-04 21:27 | 40.31113 | 33.23853 | 6007 ft | 153 kts | 241° |
| 2026-05-04 21:27 | 40.30592 | 33.22641 | 6008 ft | 153 kts | 241° |
| 2026-05-04 21:28 | 40.30071 | 33.21428 | 6010 ft | 153 kts | 240° |
| 2026-05-04 21:28 | 40.29549 | 33.20216 | 6007 ft | 153 kts | 240° |
| 2026-05-04 21:28 | 40.29026 | 33.19005 | 6011 ft | 153 kts | 240° |
| 2026-05-04 21:28 | 40.28501 | 33.17793 | 6008 ft | 153 kts | 240° |
| 2026-05-04 21:29 | 40.27976 | 33.16581 | 6011 ft | 153 kts | 240° |
| 2026-05-04 21:29 | 40.27452 | 33.15368 | 6008 ft | 153 kts | 240° |
| 2026-05-04 21:29 | 40.26930 | 33.14156 | 6008 ft | 153 kts | 240° |
| 2026-05-04 21:29 | 40.26404 | 33.12943 | 6010 ft | 153 kts | 240° |
| 2026-05-04 21:30 | 40.25681 | 33.11937 | 6012 ft | 153 kts | 216° |
| 2026-05-04 21:30 | 40.24822 | 33.11109 | 6009 ft | 153 kts | 217° |
| 2026-05-04 21:30 | 40.23959 | 33.10276 | 5913 ft | 154 kts | 217° |
| 2026-05-04 21:30 | 40.23092 | 33.09456 | 5720 ft | 153 kts | 216° |
| 2026-05-04 21:31 | 40.21359 | 33.07863 | 5233 ft | 151 kts | 216° |
| 2026-05-04 21:31 | 40.20508 | 33.07061 | 4954 ft | 150 kts | 216° |
| 2026-05-04 21:31 | 40.19682 | 33.06256 | 4679 ft | 150 kts | 217° |
| 2026-05-04 21:32 | 40.18831 | 33.05443 | 4415 ft | 149 kts | 217° |
| 2026-05-04 21:32 | 40.18004 | 33.04629 | 4156 ft | 149 kts | 218° |
| 2026-05-04 21:32 | 40.17179 | 33.03848 | 3923 ft | 148 kts | 215° |
| 2026-05-04 21:32 | 40.16337 | 33.03045 | 3744 ft | 148 kts | 218° |
| 2026-05-04 21:33 | 40.15526 | 33.02248 | 3605 ft | 148 kts | 216° |
| 2026-05-04 21:33 | 40.14691 | 33.01460 | 3414 ft | 148 kts | 216° |
| 2026-05-04 21:33 | 40.13861 | 33.00674 | 3212 ft | 147 kts | 216° |
| 2026-05-04 21:33 | 40.13077 | 32.99945 | 3132 ft | 124 kts | 218° |
| 2026-05-04 21:34 | 40.12530 | 32.99390 | 3116 ft | 75 kts | 216° |
| 2026-05-04 21:34 | 40.12199 | 32.99077 | 3106 ft | 53 kts | 216° |
| 2026-05-04 21:34 | 40.11971 | 32.98870 | 3101 ft | 17 kts | 199° |
| 2026-05-04 21:34 | 40.11877 | 32.98916 | 3099 ft | 16 kts | 149° |
| 2026-05-04 21:35 | 40.11826 | 32.99008 | 3100 ft | 12 kts | 126° |
| 2026-05-04 21:35 | 40.11777 | 32.99097 | 3099 ft | 12 kts | 126° |
| 2026-05-04 21:35 | 40.11720 | 32.99155 | 3100 ft | 10 kts | 111° |
| 2026-05-04 21:35 | 40.11704 | 32.99205 | 3101 ft | 5 kts | 133° |
| 2026-05-04 21:36 | 40.11673 | 32.99226 | 3101 ft | 5 kts | 154° |
| 2026-05-04 21:36 | 40.11647 | 32.99243 | 3102 ft | 0 kts | 153° |